createdAt,value
2023-05-20T00:00:36.472Z,98109.95
2023-05-20T00:03:18.026Z,98114.40
2023-05-20T00:05:47.160Z,98114.73
2023-05-20T00:08:16.059Z,98114.36
2023-05-20T00:10:44.314Z,98112.16
2023-05-20T00:13:12.385Z,98113.61
2023-05-20T00:15:40.414Z,98116.86
2023-05-20T00:18:08.536Z,98111.59
2023-05-20T00:20:36.808Z,98112.43
2023-05-20T00:23:04.958Z,98108.92
2023-05-20T00:25:33.379Z,98106.56
2023-05-20T00:28:01.948Z,98109.52
2023-05-20T00:30:30.114Z,98111.92
2023-05-20T00:32:58.353Z,98110.48
2023-05-20T00:35:26.487Z,98103.99
2023-05-20T00:37:54.627Z,98102.39
2023-05-20T00:40:23.719Z,98100.80
2023-05-20T00:42:52.104Z,98100.07
2023-05-20T00:45:20.684Z,98095.88
2023-05-20T00:47:49.183Z,98088.95
2023-05-20T00:50:17.825Z,98090.86
2023-05-20T00:52:48.428Z,98092.81
2023-05-20T00:55:16.852Z,98097.16
2023-05-20T00:57:45.066Z,98101.25
2023-05-20T01:00:14.243Z,98104.35
2023-05-20T01:02:42.542Z,98104.17
2023-05-20T01:05:10.963Z,98102.64
2023-05-20T01:07:39.318Z,98098.35
2023-05-20T01:10:08.428Z,98099.36
2023-05-20T01:12:41.992Z,98099.81
2023-05-20T01:15:15.804Z,98100.73
2023-05-20T01:17:51.723Z,98098.05
2023-05-20T01:20:21.477Z,98099.70
2023-05-20T01:22:50.572Z,98098.24
2023-05-20T01:25:18.685Z,98099.03
2023-05-20T01:27:49.359Z,98100.76
2023-05-20T01:30:18.001Z,98098.63
2023-05-20T01:32:54.360Z,98103.89
2023-05-20T01:35:23.272Z,98099.70
2023-05-20T01:37:53.862Z,98097.23
2023-05-20T01:40:23.482Z,98094.65
2023-05-20T01:42:55.273Z,98089.61
2023-05-20T01:45:24.645Z,98088.98
2023-05-20T01:47:53.159Z,98083.88
2023-05-20T01:50:21.456Z,98084.30
2023-05-20T01:52:49.647Z,98082.59
2023-05-20T01:55:17.953Z,98079.40
2023-05-20T01:57:46.441Z,98077.26
2023-05-20T02:00:14.954Z,98079.07
2023-05-20T02:02:42.973Z,98077.74
2023-05-20T02:05:13.941Z,98082.09
2023-05-20T02:07:44.369Z,98085.97
2023-05-20T02:10:12.413Z,98090.10
2023-05-20T02:12:40.911Z,98092.02
2023-05-20T02:15:09.594Z,98091.96
2023-05-20T02:17:37.816Z,98086.93
2023-05-20T02:20:07.944Z,98084.75
2023-05-20T02:22:36.923Z,98084.16
2023-05-20T02:25:05.646Z,98079.24
2023-05-20T02:27:33.831Z,98076.58
2023-05-20T02:30:02.449Z,98080.66
2023-05-20T02:32:30.534Z,98080.73
2023-05-20T02:34:58.667Z,98081.91
2023-05-20T02:37:27.354Z,98082.66
2023-05-20T02:39:56.500Z,98083.77
2023-05-20T02:42:24.517Z,98085.56
2023-05-20T02:44:56.678Z,98085.84
2023-05-20T02:47:26.026Z,98086.64
2023-05-20T02:49:54.270Z,98090.70
2023-05-20T02:52:22.436Z,98092.46
2023-05-20T02:54:53.077Z,98092.31
2023-05-20T02:57:21.335Z,98093.63
2023-05-20T02:59:49.211Z,98093.52
2023-05-20T03:02:17.490Z,98097.70
2023-05-20T03:04:47.003Z,98103.75
2023-05-20T03:07:17.729Z,98107.41
2023-05-20T03:09:46.083Z,98112.17
2023-05-20T03:12:14.469Z,98123.10
2023-05-20T03:14:42.838Z,98127.72
2023-05-20T03:17:11.809Z,98130.15
2023-05-20T03:19:40.006Z,98134.25
2023-05-20T03:22:07.923Z,98132.14
2023-05-20T03:24:36.006Z,98131.80
2023-05-20T03:27:04.534Z,98132.05
2023-05-20T03:29:34.845Z,98126.94
2023-05-20T03:32:04.143Z,98122.17
2023-05-20T03:34:32.221Z,98121.88
2023-05-20T03:37:00.461Z,98125.38
2023-05-20T03:39:28.642Z,98122.54
2023-05-20T03:41:56.846Z,98127.14
2023-05-20T03:44:25.017Z,98127.25
2023-05-20T03:46:53.139Z,98124.43
2023-05-20T03:49:21.772Z,98121.11
2023-05-20T03:51:49.835Z,98118.69
2023-05-20T03:54:18.215Z,98119.59
2023-05-20T03:56:49.695Z,98120.50
2023-05-20T03:59:19.377Z,98122.80
2023-05-20T04:01:47.343Z,98118.86
2023-05-20T04:04:15.665Z,98123.27
2023-05-20T04:06:44.301Z,98120.88
2023-05-20T04:09:12.155Z,98118.44
2023-05-20T04:11:40.248Z,98121.38
2023-05-20T04:14:10.605Z,98120.21
2023-05-20T04:16:39.522Z,98119.53
2023-05-20T04:19:09.199Z,98123.20
2023-05-20T04:21:37.849Z,98128.68
2023-05-20T04:24:06.956Z,98129.56
2023-05-20T04:26:35.539Z,98129.73
2023-05-20T04:29:04.120Z,98130.18
2023-05-20T04:31:32.977Z,98133.95
2023-05-20T04:34:02.838Z,98138.41
2023-05-20T04:36:31.401Z,98140.72
2023-05-20T04:38:59.911Z,98142.52
2023-05-20T04:41:27.944Z,98142.85
2023-05-20T04:44:00.940Z,98145.11
2023-05-20T04:46:30.162Z,98146.59
2023-05-20T04:48:59.940Z,98148.59
2023-05-20T04:51:29.749Z,98148.65
2023-05-20T04:53:59.247Z,98148.73
2023-05-20T04:56:29.881Z,98147.98
2023-05-20T04:58:58.976Z,98148.30
2023-05-20T05:01:27.122Z,98145.98
2023-05-20T05:03:55.521Z,98137.08
2023-05-20T05:06:24.637Z,98131.51
2023-05-20T05:08:52.590Z,98126.89
2023-05-20T05:11:21.548Z,98125.86
2023-05-20T05:13:50.021Z,98121.84
2023-05-20T05:16:19.224Z,98119.20
2023-05-20T05:18:47.672Z,98116.94
2023-05-20T05:21:15.947Z,98113.25
2023-05-20T05:23:44.289Z,98108.39
2023-05-20T05:26:12.465Z,98108.05
2023-05-20T05:28:43.549Z,98106.43
2023-05-20T05:31:12.304Z,98106.70
2023-05-20T05:33:40.591Z,98109.88
2023-05-20T05:36:08.849Z,98110.27
2023-05-20T05:38:36.864Z,98105.98
2023-05-20T05:41:05.287Z,98106.67
2023-05-20T05:43:33.570Z,98108.44
2023-05-20T05:46:03.247Z,98113.20
2023-05-20T05:48:31.264Z,98120.66
2023-05-20T05:50:59.253Z,98121.47
2023-05-20T05:53:27.837Z,98122.81
2023-05-20T05:55:56.181Z,98125.14
2023-05-20T05:58:24.278Z,98128.45
2023-05-20T06:00:53.330Z,98127.44
2023-05-20T06:03:21.887Z,98130.52
2023-05-20T06:05:50.163Z,98129.45
2023-05-20T06:08:18.391Z,98128.52
2023-05-20T06:10:50.542Z,98122.41
2023-05-20T06:13:19.220Z,98119.67
2023-05-20T06:15:50.059Z,98113.04
2023-05-20T06:18:18.250Z,98115.42
2023-05-20T06:20:46.512Z,98111.35
2023-05-20T06:23:14.599Z,98108.27
2023-05-20T06:25:51.345Z,98106.92
2023-05-20T06:28:21.163Z,98103.28
2023-05-20T06:30:49.368Z,98100.88
2023-05-20T06:33:19.928Z,98102.88
2023-05-20T06:35:48.163Z,98103.14
2023-05-20T06:38:16.985Z,98100.90
2023-05-20T06:40:45.437Z,98097.02
2023-05-20T06:43:13.398Z,98093.09
2023-05-20T06:46:01.551Z,98094.02
2023-05-20T06:48:35.213Z,98091.17
2023-05-20T06:51:04.027Z,98093.23
2023-05-20T06:53:32.381Z,98092.39
2023-05-20T06:56:01.381Z,98091.81
2023-05-20T06:58:29.546Z,98091.94
2023-05-20T07:00:58.370Z,98085.20
2023-05-20T07:03:27.288Z,98079.14
2023-05-20T07:05:56.035Z,98075.17
2023-05-20T07:08:25.341Z,98068.16
2023-05-20T07:10:57.114Z,98065.43
2023-05-20T07:13:26.502Z,98065.58
2023-05-20T07:15:55.003Z,98064.30
2023-05-20T07:18:23.428Z,98060.92
2023-05-20T07:20:54.477Z,98061.21
2023-05-20T07:23:35.780Z,98060.55
2023-05-20T07:26:03.973Z,98054.39
2023-05-20T07:28:31.856Z,98054.60
2023-05-20T07:31:00.925Z,98058.57
2023-05-20T07:33:30.923Z,98055.30
2023-05-20T07:35:59.742Z,98058.19
2023-05-20T07:38:28.031Z,98057.27
2023-05-20T07:41:02.040Z,98059.10
2023-05-20T07:43:30.581Z,98059.27
2023-05-20T07:45:59.847Z,98056.27
2023-05-20T07:48:28.139Z,98057.64
2023-05-20T07:50:59.381Z,98055.31
2023-05-20T07:53:28.581Z,98055.05
2023-05-20T07:55:57.662Z,98050.16
2023-05-20T07:58:29.065Z,98053.57
2023-05-20T08:00:57.484Z,98051.57
2023-05-20T08:03:27.262Z,98053.73
2023-05-20T08:06:03.552Z,98052.13
2023-05-20T08:08:31.876Z,98056.39
2023-05-20T08:11:04.356Z,98054.76
2023-05-20T08:13:33.219Z,98053.08
2023-05-20T08:16:04.303Z,98050.98
2023-05-20T08:18:36.836Z,98045.75
2023-05-20T08:21:08.044Z,98043.27
2023-05-20T08:23:40.197Z,98040.66
2023-05-20T08:26:09.072Z,98041.39
2023-05-20T08:28:39.168Z,98028.82
2023-05-20T08:31:07.241Z,98029.95
2023-05-20T08:33:35.640Z,98031.88
2023-05-20T08:36:04.320Z,98027.41
2023-05-20T08:38:32.424Z,98029.88
2023-05-20T08:41:02.426Z,98029.11
2023-05-20T08:43:32.859Z,98024.30
2023-05-20T08:46:05.449Z,98027.36
2023-05-20T08:48:35.995Z,98025.44
2023-05-20T08:51:05.177Z,98021.19
2023-05-20T08:53:33.346Z,98016.92
2023-05-20T08:56:03.837Z,98015.30
2023-05-20T08:58:35.810Z,98018.57
2023-05-20T09:01:03.873Z,98016.02
2023-05-20T09:03:32.454Z,98019.85
2023-05-20T09:06:08.223Z,98020.59
2023-05-20T09:08:37.411Z,98021.29
2023-05-20T09:11:05.865Z,98021.11
2023-05-20T09:13:34.285Z,98015.59
2023-05-20T09:16:03.713Z,98017.68
2023-05-20T09:18:32.410Z,98014.98
2023-05-20T09:21:07.202Z,98020.79
2023-05-20T09:23:38.643Z,98019.04
2023-05-20T09:26:07.204Z,98018.27
2023-05-20T09:28:38.478Z,98019.65
2023-05-20T09:31:07.292Z,98019.98
2023-05-20T09:33:37.072Z,98015.87
2023-05-20T09:36:08.188Z,98005.20
2023-05-20T09:38:40.675Z,98001.05
2023-05-20T09:41:15.510Z,98001.61
2023-05-20T09:43:45.721Z,97997.66
2023-05-20T09:46:14.376Z,97997.77
2023-05-20T09:48:43.888Z,97993.69
2023-05-20T09:51:13.878Z,97995.41
2023-05-20T09:53:43.267Z,97993.59
2023-05-20T09:56:11.481Z,97993.05
2023-05-20T09:58:42.541Z,97995.55
2023-05-20T10:01:10.824Z,97992.91
2023-05-20T10:03:40.106Z,97991.89
2023-05-20T10:06:27.647Z,97985.98
2023-05-20T10:09:05.802Z,97982.92
2023-05-20T10:11:38.861Z,97970.48
2023-05-20T10:14:27.101Z,97975.71
2023-05-20T10:17:02.065Z,97974.92
2023-05-20T10:19:33.277Z,97967.20
2023-05-20T10:22:02.694Z,97961.15
2023-05-20T10:24:38.716Z,97954.33
2023-05-20T10:27:14.290Z,97952.08
2023-05-20T10:32:27.730Z,97957.45
2023-05-20T10:35:05.366Z,97955.48
2023-05-20T10:37:44.253Z,97953.48
2023-05-20T10:40:14.350Z,97951.72
2023-05-20T10:42:43.367Z,97954.88
2023-05-20T10:45:12.394Z,97951.52
2023-05-20T10:47:59.400Z,97949.41
2023-05-20T10:50:29.353Z,97946.48
2023-05-20T10:53:04.873Z,97943.65
2023-05-20T10:55:38.078Z,97937.40
2023-05-20T10:58:07.144Z,97930.33
2023-05-20T11:00:39.389Z,97927.81
2023-05-20T11:03:08.197Z,97925.87
2023-05-20T11:05:36.892Z,97927.06
2023-05-20T11:08:16.958Z,97921.81
2023-05-20T11:10:52.591Z,97917.54
2023-05-20T11:15:50.290Z,97908.81
2023-05-20T11:18:18.971Z,97908.42
2023-05-20T11:20:47.639Z,97902.91
2023-05-20T11:23:16.592Z,97902.61
2023-05-20T11:25:44.846Z,97902.19
2023-05-20T11:28:14.643Z,97898.38
2023-05-20T11:30:43.495Z,97893.54
2023-05-20T11:33:16.945Z,97891.47
2023-05-20T11:35:49.996Z,97885.74
2023-05-20T11:38:19.690Z,97882.36
2023-05-20T11:40:58.568Z,97881.77
2023-05-20T11:43:26.965Z,97881.58
2023-05-20T11:45:59.403Z,97877.30
2023-05-20T11:48:28.170Z,97871.40
2023-05-20T11:50:57.764Z,97876.71
2023-05-20T11:53:27.161Z,97872.85
2023-05-20T11:55:57.240Z,97873.29
2023-05-20T11:58:27.419Z,97872.39
2023-05-20T12:01:02.306Z,97867.33
2023-05-20T12:03:42.256Z,97853.77
2023-05-20T12:06:13.639Z,97851.44
2023-05-20T12:08:41.730Z,97854.68
2023-05-20T12:11:09.870Z,97852.23
2023-05-20T12:13:38.372Z,97855.67
2023-05-20T12:16:06.976Z,97855.76
2023-05-20T12:18:35.213Z,97853.73
2023-05-20T12:21:03.256Z,97847.48
2023-05-20T12:23:34.373Z,97843.49
2023-05-20T12:26:02.897Z,97837.40
2023-05-20T12:28:32.415Z,97838.50
2023-05-20T12:31:01.212Z,97833.16
2023-05-20T12:33:29.361Z,97836.67
2023-05-20T12:35:57.956Z,97843.11
2023-05-20T12:38:26.009Z,97862.70
2023-05-20T12:40:54.191Z,97913.42
2023-05-20T12:43:22.408Z,97946.23
2023-05-20T12:45:52.328Z,97981.65
2023-05-20T12:48:20.681Z,98020.02
2023-05-20T12:50:49.036Z,98034.96
2023-05-20T12:53:17.210Z,98047.52
2023-05-20T12:55:45.496Z,98052.79
2023-05-20T12:58:13.618Z,98050.29
2023-05-20T13:00:41.945Z,98058.07
2023-05-20T13:03:10.087Z,98056.14
2023-05-20T13:05:38.156Z,98054.27
2023-05-20T13:08:06.434Z,98048.92
2023-05-20T13:10:34.621Z,98038.00
2023-05-20T13:13:03.130Z,98027.34
2023-05-20T13:15:33.507Z,98022.60
2023-05-20T13:18:03.612Z,98020.92
2023-05-20T13:20:32.280Z,98011.38
2023-05-20T13:23:00.279Z,98003.90
2023-05-20T13:25:28.492Z,98002.23
2023-05-20T13:27:56.461Z,97999.09
2023-05-20T13:30:24.462Z,97993.69
2023-05-20T13:32:52.952Z,97994.93
2023-05-20T13:35:21.521Z,97999.75
2023-05-20T13:37:49.564Z,98008.66
2023-05-20T13:40:17.720Z,98026.63
2023-05-20T13:42:45.970Z,98034.27
2023-05-20T13:45:14.162Z,98031.50
2023-05-20T13:47:42.265Z,98026.81
2023-05-20T13:50:11.360Z,98020.48
2023-05-20T13:52:39.523Z,98012.07
2023-05-20T13:55:08.129Z,98008.05
2023-05-20T13:57:36.484Z,98007.88
2023-05-20T14:00:05.079Z,98006.06
2023-05-20T14:02:37.229Z,97999.69
2023-05-20T14:05:07.428Z,97997.31
2023-05-20T14:07:35.813Z,97986.02
2023-05-20T14:10:04.502Z,97974.18
2023-05-20T14:12:32.678Z,97961.30
2023-05-20T14:15:00.776Z,97954.41
2023-05-20T14:17:28.871Z,97947.95
2023-05-20T14:19:56.923Z,97942.37
2023-05-20T14:22:25.157Z,97939.38
2023-05-20T14:24:53.182Z,97938.13
2023-05-20T14:27:21.321Z,97935.36
2023-05-20T14:29:49.315Z,97934.10
2023-05-20T14:32:17.451Z,97928.33
2023-05-20T14:34:45.820Z,97917.09
2023-05-20T14:37:15.456Z,97899.73
2023-05-20T14:39:43.492Z,97874.95
2023-05-20T14:42:12.235Z,97869.36
2023-05-20T14:44:40.371Z,97873.58
2023-05-20T14:47:08.418Z,97876.60
2023-05-20T14:49:39.471Z,97874.79
2023-05-20T14:52:07.953Z,97864.94
2023-05-20T14:54:36.352Z,97863.38
2023-05-20T14:57:06.764Z,97861.70
2023-05-20T14:59:34.953Z,97863.45
2023-05-20T15:02:03.357Z,97860.31
2023-05-20T15:04:31.577Z,97855.05
2023-05-20T15:06:59.592Z,97852.48
2023-05-20T15:09:27.914Z,97853.31
2023-05-20T15:11:56.101Z,97854.13
2023-05-20T15:14:24.071Z,97852.48
2023-05-20T15:16:52.247Z,97852.20
2023-05-20T15:19:20.481Z,97850.29
2023-05-20T15:21:49.771Z,97842.84
2023-05-20T15:24:19.012Z,97844.98
2023-05-20T15:26:47.093Z,97842.13
2023-05-20T15:29:15.102Z,97842.80
2023-05-20T15:31:43.120Z,97836.84
2023-05-20T15:34:11.252Z,97836.34
2023-05-20T15:36:40.305Z,97835.61
2023-05-20T15:39:09.070Z,97830.52
2023-05-20T15:41:39.875Z,97826.83
2023-05-20T15:44:09.040Z,97834.55
2023-05-20T15:46:37.266Z,97835.15
2023-05-20T15:49:05.890Z,97834.37
2023-05-20T15:51:33.824Z,97833.02
2023-05-20T15:54:01.942Z,97836.00
2023-05-20T15:56:31.280Z,97837.25
2023-05-20T15:58:59.483Z,97839.75
2023-05-20T16:01:28.701Z,97846.01
2023-05-20T16:03:58.670Z,97846.54
2023-05-20T16:06:26.980Z,97846.41
2023-05-20T16:08:54.954Z,97846.26
2023-05-20T16:11:23.944Z,97841.60
2023-05-20T16:13:52.229Z,97836.91
2023-05-20T16:16:20.753Z,97833.73
2023-05-20T16:18:49.100Z,97827.77
2023-05-20T16:21:17.140Z,97822.79
2023-05-20T16:23:45.603Z,97822.34
2023-05-20T16:26:14.608Z,97820.89
2023-05-20T16:28:42.774Z,97819.52
2023-05-20T16:31:10.880Z,97819.11
2023-05-20T16:33:39.009Z,97815.11
2023-05-20T16:36:07.179Z,97812.87
2023-05-20T16:38:35.469Z,97813.58
2023-05-20T16:41:03.640Z,97815.48
2023-05-20T16:43:31.727Z,97816.64
2023-05-20T16:45:59.751Z,97810.99
2023-05-20T16:48:28.181Z,97810.15
2023-05-20T16:50:56.356Z,97815.20
2023-05-20T16:53:24.613Z,97817.08
2023-05-20T16:55:52.781Z,97818.31
2023-05-20T16:58:20.850Z,97821.65
2023-05-20T17:00:49.348Z,97826.92
2023-05-20T17:03:18.317Z,97835.79
2023-05-20T17:05:46.529Z,97838.55
2023-05-20T17:08:14.512Z,97835.29
2023-05-20T17:10:42.778Z,97830.67
2023-05-20T17:13:11.018Z,97826.77
2023-05-20T17:15:39.292Z,97828.35
2023-05-20T17:18:07.589Z,97833.81
2023-05-20T17:20:36.319Z,97836.97
2023-05-20T17:23:04.575Z,97841.16
2023-05-20T17:25:32.903Z,97851.14
2023-05-20T17:28:01.309Z,97859.84
2023-05-20T17:30:29.286Z,97858.16
2023-05-20T17:32:57.968Z,97863.69
2023-05-20T17:35:26.346Z,97866.35
2023-05-20T17:37:55.199Z,97865.45
2023-05-20T17:40:23.776Z,97867.08
2023-05-20T17:42:52.167Z,97870.46
2023-05-20T17:45:20.087Z,97864.32
2023-05-20T17:47:48.536Z,97858.75
2023-05-20T17:50:17.115Z,97862.83
2023-05-20T17:52:45.156Z,97858.20
2023-05-20T17:55:13.239Z,97853.21
2023-05-20T17:57:41.225Z,97858.73
2023-05-20T18:00:09.701Z,97860.13
2023-05-20T18:02:38.468Z,97865.95
2023-05-20T18:05:07.365Z,97867.94
2023-05-20T18:07:36.344Z,97865.98
2023-05-20T18:10:06.195Z,97865.82
2023-05-20T18:12:34.171Z,97869.26
2023-05-20T18:15:02.526Z,97877.70
2023-05-20T18:17:30.723Z,97880.26
2023-05-20T18:19:58.865Z,97882.41
2023-05-20T18:22:27.252Z,97887.42
2023-05-20T18:24:55.636Z,97888.95
2023-05-20T18:27:23.623Z,97890.95
2023-05-20T18:29:51.457Z,97888.52
2023-05-20T18:32:20.438Z,97888.64
2023-05-20T18:34:48.484Z,97886.95
2023-05-20T18:37:16.810Z,97883.54
2023-05-20T18:39:44.886Z,97882.32
2023-05-20T18:42:12.907Z,97883.77
2023-05-20T18:44:41.416Z,97891.34
2023-05-20T18:47:10.617Z,97896.13
2023-05-20T18:49:38.772Z,97899.34
2023-05-20T18:52:07.289Z,97904.88
2023-05-20T18:54:35.966Z,97908.61
2023-05-20T18:57:05.224Z,97906.02
2023-05-20T18:59:33.423Z,97903.79
2023-05-20T19:02:01.756Z,97902.67
2023-05-20T19:04:30.154Z,97903.84
2023-05-20T19:06:59.362Z,97906.59
2023-05-20T19:09:27.460Z,97908.56
2023-05-20T19:11:59.248Z,97910.88
2023-05-20T19:14:27.263Z,97908.88
2023-05-20T19:16:55.496Z,97913.79
2023-05-20T19:19:23.681Z,97920.14
2023-05-20T19:21:52.349Z,97922.05
2023-05-20T19:24:20.439Z,97924.20
2023-05-20T19:26:48.421Z,97919.55
2023-05-20T19:29:16.714Z,97921.92
2023-05-20T19:31:45.975Z,97921.02
2023-05-20T19:34:14.475Z,97927.38
2023-05-20T19:36:42.983Z,97928.17
2023-05-20T19:39:11.912Z,97927.73
2023-05-20T19:41:40.016Z,97921.29
2023-05-20T19:44:08.976Z,97922.17
2023-05-20T19:46:37.393Z,97925.16
2023-05-20T19:49:06.439Z,97926.77
2023-05-20T19:51:34.777Z,97926.45
2023-05-20T19:54:02.965Z,97927.77
2023-05-20T19:56:31.227Z,97932.02
2023-05-20T19:59:01.969Z,97923.52
2023-05-20T20:01:30.687Z,97919.33
2023-05-20T20:03:58.785Z,97926.74
2023-05-20T20:06:27.350Z,97927.75
2023-05-20T20:08:55.567Z,97923.45
2023-05-20T20:11:23.947Z,97924.48
2023-05-20T20:13:52.018Z,97922.80
2023-05-20T20:16:20.321Z,97927.61
2023-05-20T20:18:48.785Z,97925.73
2023-05-20T20:21:16.942Z,97924.96
2023-05-20T20:23:45.280Z,97922.13
2023-05-20T20:26:14.009Z,97920.28
2023-05-20T20:28:42.087Z,97914.13
2023-05-20T20:31:10.206Z,97916.41
2023-05-20T20:33:38.326Z,97920.45
2023-05-20T20:36:09.003Z,97920.83
2023-05-20T20:38:37.705Z,97928.89
2023-05-20T20:41:05.945Z,97934.93
2023-05-20T20:43:34.974Z,97940.36
2023-05-20T20:46:03.728Z,97939.33
2023-05-20T20:48:32.688Z,97939.30
2023-05-20T20:51:02.318Z,97933.80
2023-05-20T20:53:30.671Z,97936.11
2023-05-20T20:55:58.727Z,97929.09
2023-05-20T20:58:27.345Z,97925.55
2023-05-20T21:00:55.355Z,97929.02
2023-05-20T21:03:24.200Z,97927.11
2023-05-20T21:05:52.211Z,97922.47
2023-05-20T21:08:22.382Z,97917.55
2023-05-20T21:10:50.425Z,97918.99
2023-05-20T21:13:18.354Z,97920.08
2023-05-20T21:15:46.635Z,97916.71
2023-05-20T21:18:21.845Z,97908.19
2023-05-20T21:20:51.444Z,97897.46
2023-05-20T21:23:20.852Z,97889.06
2023-05-20T21:25:49.405Z,97881.71
2023-05-20T21:28:17.596Z,97888.08
2023-05-20T21:30:45.522Z,97897.09
2023-05-20T21:33:13.834Z,97896.83
2023-05-20T21:35:41.901Z,97890.54
2023-05-20T21:38:10.184Z,97896.75
2023-05-20T21:40:38.351Z,97897.19
2023-05-20T21:43:06.528Z,97897.98
2023-05-20T21:45:34.727Z,97892.73
2023-05-20T21:48:03.092Z,97894.65
2023-05-20T21:50:30.995Z,97894.30
2023-05-20T21:52:59.045Z,97900.58
2023-05-20T21:55:26.946Z,97907.79
2023-05-20T21:57:55.345Z,97907.45
2023-05-20T22:00:23.425Z,97901.30
2023-05-20T22:02:51.525Z,97901.27
2023-05-20T22:05:20.919Z,97892.70
2023-05-20T22:07:51.398Z,97890.91
2023-05-20T22:10:20.945Z,97894.56
2023-05-20T22:12:51.013Z,97896.80
2023-05-20T22:15:19.399Z,97901.21
2023-05-20T22:17:47.926Z,97898.46
2023-05-20T22:20:15.935Z,97890.33
2023-05-20T22:22:44.148Z,97890.66
2023-05-20T22:25:12.823Z,97893.98
2023-05-20T22:27:43.165Z,97896.49
2023-05-20T22:30:12.328Z,97898.70
2023-05-20T22:32:41.056Z,97904.39
2023-05-20T22:35:09.987Z,97906.24
2023-05-20T22:37:37.917Z,97905.81
2023-05-20T22:40:07.407Z,97897.77
2023-05-20T22:42:35.772Z,97892.11
2023-05-20T22:45:04.566Z,97890.31
2023-05-20T22:47:33.071Z,97891.73
2023-05-20T22:50:02.738Z,97889.20
2023-05-20T22:52:31.468Z,97893.84
2023-05-20T22:55:00.034Z,97893.02
2023-05-20T22:57:29.554Z,97896.67
2023-05-20T22:59:57.596Z,97900.38
2023-05-20T23:02:26.392Z,97899.84
2023-05-20T23:04:54.666Z,97899.83
2023-05-20T23:07:23.761Z,97895.53
2023-05-20T23:09:51.672Z,97894.02
2023-05-20T23:12:19.695Z,97892.58
2023-05-20T23:14:47.781Z,97889.73
2023-05-20T23:17:16.341Z,97889.61
2023-05-20T23:19:44.531Z,97892.48
2023-05-20T23:22:14.263Z,97893.49
2023-05-20T23:24:42.297Z,97897.34
2023-05-20T23:27:10.585Z,97895.62
2023-05-20T23:29:38.750Z,97897.16
2023-05-20T23:32:07.456Z,97898.47
2023-05-20T23:34:36.118Z,97894.84
2023-05-20T23:37:04.340Z,97893.98
2023-05-20T23:39:32.469Z,97895.42
2023-05-20T23:42:01.267Z,97891.01
2023-05-20T23:44:29.216Z,97884.09
2023-05-20T23:46:57.119Z,97879.45
2023-05-20T23:49:27.346Z,97879.20
2023-05-20T23:51:56.071Z,97876.46
2023-05-20T23:54:24.178Z,97878.15
2023-05-20T23:56:52.352Z,97879.48
2023-05-20T23:59:20.733Z,97875.84
